createdAt,value
2023-02-17T00:01:01.974Z,67.50
2023-02-17T00:03:28.752Z,78.73
2023-02-17T00:05:55.442Z,46.57
2023-02-17T00:08:22.170Z,38.60
2023-02-17T00:10:58.539Z,35.30
2023-02-17T00:13:26.065Z,45.80
2023-02-17T00:15:53.069Z,58.50
2023-02-17T00:18:19.892Z,62.63
2023-02-17T00:20:46.524Z,65.53
2023-02-17T00:23:13.532Z,59.63
2023-02-17T00:25:40.364Z,60.43
2023-02-17T00:28:07.425Z,69.40
2023-02-17T00:30:34.314Z,68.87
2023-02-17T00:33:01.010Z,56.57
2023-02-17T00:35:27.766Z,58.27
2023-02-17T00:37:54.374Z,58.43
2023-02-17T00:40:21.260Z,64.53
2023-02-17T00:42:49.254Z,63.30
2023-02-17T00:45:16.170Z,50.60
2023-02-17T00:47:42.811Z,59.67
2023-02-17T00:50:10.002Z,61.13
2023-02-17T00:52:36.737Z,56.77
2023-02-17T00:55:04.080Z,54.10
2023-02-17T00:57:32.453Z,53.57
2023-02-17T00:59:59.348Z,36.53
2023-02-17T01:02:26.122Z,39.43
2023-02-17T01:04:53.538Z,48.87
2023-02-17T01:07:20.314Z,68.67
2023-02-17T01:09:47.152Z,71.67
2023-02-17T01:12:13.881Z,60.00
2023-02-17T01:14:40.571Z,63.13
2023-02-17T01:17:07.345Z,55.90
2023-02-17T01:19:34.034Z,54.97
2023-02-17T01:22:01.374Z,39.73
2023-02-17T01:24:28.091Z,31.23
2023-02-17T01:26:55.028Z,32.03
2023-02-17T01:29:22.166Z,29.63
2023-02-17T01:31:48.872Z,28.03
2023-02-17T01:34:15.578Z,32.20
2023-02-17T01:36:42.296Z,52.27
2023-02-17T01:39:12.005Z,32.27
2023-02-17T01:41:38.628Z,39.17
2023-02-17T01:44:18.514Z,42.33
2023-02-17T01:46:47.685Z,39.60
2023-02-17T01:49:23.613Z,35.33
2023-02-17T01:51:56.963Z,29.97
2023-02-17T01:54:42.360Z,32.60
2023-02-17T01:57:11.719Z,33.40
2023-02-17T01:59:39.006Z,35.20
2023-02-17T02:02:06.944Z,35.77
2023-02-17T02:04:36.845Z,34.40
2023-02-17T02:07:10.757Z,33.43
2023-02-17T02:09:43.212Z,49.30
2023-02-17T02:12:22.224Z,141.83
2023-02-17T02:14:51.035Z,50.23
2023-02-17T02:17:39.808Z,48.27
2023-02-17T02:20:28.775Z,64.60
2023-02-17T02:23:49.876Z,47.23
2023-02-17T02:26:44.511Z,48.67
2023-02-17T02:29:39.170Z,51.13
2023-02-17T02:32:18.889Z,61.87
2023-02-17T02:34:52.442Z,57.57
2023-02-17T02:37:26.770Z,70.20
2023-02-17T02:39:55.512Z,54.10
2023-02-17T02:42:24.525Z,36.53
2023-02-17T02:44:51.697Z,70.73
2023-02-17T02:47:49.110Z,58.70
2023-02-17T02:50:38.907Z,54.33
2023-02-17T02:53:19.257Z,47.17
2023-02-17T02:56:13.847Z,51.47
2023-02-17T02:58:47.246Z,50.23
2023-02-17T03:01:45.180Z,51.07
2023-02-17T03:04:26.655Z,51.17
2023-02-17T03:06:58.964Z,41.77
2023-02-17T03:09:28.127Z,36.23
2023-02-17T03:11:57.378Z,32.77
2023-02-17T03:14:25.265Z,36.97
2023-02-17T03:16:52.716Z,38.50
2023-02-17T03:19:24.013Z,50.07
2023-02-17T03:22:05.794Z,49.97
2023-02-17T03:24:33.819Z,46.77
2023-02-17T03:27:00.506Z,46.47
2023-02-17T03:29:27.326Z,41.03
2023-02-17T03:31:54.226Z,41.70
2023-02-17T03:34:20.982Z,41.83
2023-02-17T03:36:47.680Z,41.10
2023-02-17T03:39:14.554Z,42.00
2023-02-17T03:41:41.271Z,38.73
2023-02-17T03:44:08.325Z,35.53
2023-02-17T03:46:35.415Z,42.50
2023-02-17T03:49:02.026Z,42.33
2023-02-17T03:51:28.711Z,55.07
2023-02-17T03:53:55.361Z,72.67
2023-02-17T03:56:22.149Z,62.63
2023-02-17T03:58:48.929Z,59.57
2023-02-17T04:01:16.040Z,53.23
2023-02-17T04:03:42.810Z,45.97
2023-02-17T04:06:10.600Z,52.07
2023-02-17T04:08:38.097Z,56.90
2023-02-17T04:11:06.659Z,71.93
2023-02-17T04:13:34.682Z,91.97
2023-02-17T04:16:01.615Z,87.37
2023-02-17T04:18:29.480Z,93.67
2023-02-17T04:20:56.572Z,92.30
2023-02-17T04:23:23.359Z,84.10
2023-02-17T04:25:50.298Z,82.63
2023-02-17T04:28:17.270Z,81.60
2023-02-17T04:30:48.974Z,87.00
2023-02-17T04:33:18.051Z,90.43
2023-02-17T04:35:45.255Z,98.37
2023-02-17T04:38:12.058Z,148.60
2023-02-17T04:40:39.135Z,231.13
2023-02-17T04:43:05.981Z,185.03
2023-02-17T04:45:32.731Z,127.73
2023-02-17T04:47:59.389Z,107.07
2023-02-17T04:50:26.292Z,107.83
2023-02-17T04:52:53.051Z,112.47
2023-02-17T04:55:20.845Z,120.77
2023-02-17T04:57:47.852Z,172.33
2023-02-17T05:00:14.760Z,165.33
2023-02-17T05:02:41.499Z,172.30
2023-02-17T05:05:09.270Z,140.40
2023-02-17T05:07:35.982Z,108.60
2023-02-17T05:10:02.892Z,118.40
2023-02-17T05:12:29.530Z,131.13
2023-02-17T05:14:56.255Z,142.00
2023-02-17T05:17:23.053Z,146.30
2023-02-17T05:19:49.752Z,169.83
2023-02-17T05:22:16.481Z,188.67
2023-02-17T05:24:43.276Z,179.20
2023-02-17T05:27:10.180Z,144.63
2023-02-17T05:29:36.894Z,110.43
2023-02-17T05:32:03.709Z,111.60
2023-02-17T05:34:30.771Z,101.10
2023-02-17T05:36:57.472Z,103.73
2023-02-17T05:39:24.278Z,90.63
2023-02-17T05:41:50.993Z,85.63
2023-02-17T05:44:18.608Z,125.77
2023-02-17T05:46:45.372Z,107.90
2023-02-17T05:49:12.057Z,105.93
2023-02-17T05:51:38.915Z,104.73
2023-02-17T05:54:06.250Z,114.13
2023-02-17T05:56:33.338Z,119.73
2023-02-17T05:59:00.704Z,116.80
2023-02-17T06:01:27.971Z,118.53
2023-02-17T06:03:54.727Z,121.23
2023-02-17T06:06:21.481Z,115.00
2023-02-17T06:08:48.233Z,104.33
2023-02-17T06:11:14.968Z,109.60
2023-02-17T06:13:41.674Z,111.33
2023-02-17T06:16:08.768Z,105.73
2023-02-17T06:18:35.668Z,115.50
2023-02-17T06:21:02.554Z,113.87
2023-02-17T06:23:29.471Z,129.00
2023-02-17T06:25:56.224Z,126.97
2023-02-17T06:28:22.917Z,126.20
2023-02-17T06:30:49.596Z,133.03
2023-02-17T06:33:16.333Z,132.17
2023-02-17T06:35:44.610Z,126.23
2023-02-17T06:38:20.409Z,113.07
2023-02-17T06:40:47.161Z,107.70
2023-02-17T06:43:14.005Z,137.67
2023-02-17T06:45:41.100Z,138.20
2023-02-17T06:48:07.950Z,106.87
2023-02-17T06:50:35.113Z,103.85
2023-02-17T06:53:01.839Z,95.00
2023-02-17T06:55:28.522Z,103.57
2023-02-17T06:57:55.183Z,111.90
2023-02-17T07:00:22.215Z,118.28
2023-02-17T07:02:49.076Z,130.05
2023-02-17T07:05:15.954Z,145.73
2023-02-17T07:07:42.888Z,151.95
2023-02-17T07:10:09.880Z,114.90
2023-02-17T07:12:36.647Z,72.47
2023-02-17T07:15:03.855Z,57.28
2023-02-17T07:17:31.482Z,62.35
2023-02-17T07:19:58.297Z,68.53
2023-02-17T07:22:26.750Z,65.25
2023-02-17T07:24:53.741Z,64.35
2023-02-17T07:27:20.421Z,59.85
2023-02-17T07:29:47.120Z,33.55
2023-02-17T07:32:13.798Z,56.80
2023-02-17T07:34:40.492Z,68.68
2023-02-17T07:37:08.417Z,83.35
2023-02-17T07:39:35.093Z,82.35
2023-02-17T07:42:05.259Z,75.22
2023-02-17T07:44:32.834Z,79.40
2023-02-17T07:47:00.717Z,79.65
2023-02-17T07:49:27.452Z,73.35
2023-02-17T07:51:54.204Z,49.67
2023-02-17T07:54:21.677Z,63.30
2023-02-17T07:56:49.239Z,60.10
2023-02-17T07:59:17.098Z,63.80
2023-02-17T08:01:43.835Z,75.30
2023-02-17T08:04:10.772Z,67.28
2023-02-17T08:06:40.113Z,62.50
2023-02-17T08:09:25.420Z,61.28
2023-02-17T08:14:38.511Z,71.47
2023-02-17T08:17:08.228Z,64.47
2023-02-17T08:19:47.401Z,69.35
2023-02-17T08:22:17.186Z,65.72
2023-02-17T08:24:43.968Z,66.80
2023-02-17T08:27:10.681Z,59.22
2023-02-17T08:29:37.566Z,50.03
2023-02-17T08:32:04.501Z,39.72
2023-02-17T08:34:34.179Z,34.00
2023-02-17T08:37:02.511Z,38.45
2023-02-17T08:39:29.265Z,33.55
2023-02-17T08:41:56.254Z,31.83
2023-02-17T08:44:23.510Z,29.73
2023-02-17T08:46:51.869Z,37.65
2023-02-17T08:49:21.689Z,44.92
2023-02-17T08:51:49.193Z,60.45
2023-02-17T08:54:15.958Z,43.28
2023-02-17T08:56:43.904Z,32.03
2023-02-17T08:59:11.982Z,40.15
2023-02-17T09:01:39.761Z,37.92
2023-02-17T09:04:08.843Z,40.47
2023-02-17T09:06:44.626Z,40.33
2023-02-17T09:09:14.879Z,28.90
2023-02-17T09:11:42.157Z,30.67
2023-02-17T09:14:09.077Z,35.88
2023-02-17T09:16:36.193Z,54.22
2023-02-17T09:19:03.320Z,32.03
2023-02-17T09:21:30.090Z,13.85
2023-02-17T09:23:57.124Z,16.52
2023-02-17T09:26:23.947Z,16.08
2023-02-17T09:28:50.780Z,26.08
2023-02-17T09:31:19.997Z,32.47
2023-02-17T09:33:50.568Z,26.13
2023-02-17T09:36:24.406Z,32.35
2023-02-17T09:38:52.225Z,25.27
2023-02-17T09:41:26.088Z,28.13
2023-02-17T09:43:53.776Z,22.60
2023-02-17T09:46:32.436Z,26.23
2023-02-17T09:49:15.313Z,22.45
2023-02-17T09:51:53.699Z,24.17
2023-02-17T09:54:26.415Z,26.02
2023-02-17T09:56:55.792Z,17.27
2023-02-17T09:59:32.584Z,18.38
2023-02-17T10:02:01.356Z,16.83
2023-02-17T10:04:37.509Z,22.77
2023-02-17T10:07:46.021Z,17.45
2023-02-17T10:10:25.615Z,7.35
2023-02-17T10:12:56.963Z,8.68
2023-02-17T10:15:27.727Z,15.80
2023-02-17T10:18:05.768Z,11.00
2023-02-17T10:20:36.268Z,18.23
2023-02-17T10:23:22.556Z,12.50
2023-02-17T10:26:14.151Z,24.05
2023-02-17T10:29:41.775Z,11.95
2023-02-17T10:32:25.284Z,16.52
2023-02-17T10:34:59.107Z,7.15
2023-02-17T10:37:48.437Z,7.40
2023-02-17T10:40:20.437Z,8.43
2023-02-17T10:42:49.788Z,4.90
2023-02-17T10:45:41.062Z,4.22
2023-02-17T10:48:19.304Z,4.93
2023-02-17T10:50:46.919Z,7.25
2023-02-17T10:53:17.639Z,7.40
2023-02-17T10:56:08.355Z,4.13
2023-02-17T10:58:44.223Z,6.97
2023-02-17T11:01:12.035Z,5.43
2023-02-17T11:03:41.104Z,2.80
2023-02-17T11:06:26.309Z,4.85
2023-02-17T11:09:00.037Z,4.05
2023-02-17T11:11:32.177Z,5.40
2023-02-17T11:14:23.816Z,4.35
2023-02-17T11:17:13.115Z,4.75
2023-02-17T11:19:39.946Z,5.13
2023-02-17T11:22:29.948Z,8.80
2023-02-17T11:25:01.817Z,9.52
2023-02-17T11:27:28.505Z,7.68
2023-02-17T11:30:07.038Z,6.65
2023-02-17T11:32:33.916Z,4.40
2023-02-17T11:35:06.326Z,3.70
2023-02-17T11:37:37.745Z,2.90
2023-02-17T11:40:26.340Z,4.43
2023-02-17T11:42:58.511Z,6.15
2023-02-17T11:45:29.433Z,5.07
2023-02-17T11:48:22.120Z,6.07
2023-02-17T11:51:25.701Z,5.63
2023-02-17T11:54:23.073Z,3.25
2023-02-17T11:57:18.736Z,5.82
2023-02-17T12:02:54.690Z,6.65
2023-02-17T12:05:56.273Z,3.17
2023-02-17T12:09:10.938Z,7.43
2023-02-17T12:11:37.657Z,1.77
2023-02-17T12:14:10.827Z,4.70
2023-02-17T12:17:02.855Z,9.55
2023-02-17T12:19:45.784Z,6.22
2023-02-17T12:22:15.438Z,4.40
2023-02-17T12:25:19.411Z,3.70
2023-02-17T12:28:07.582Z,7.03
2023-02-17T12:30:34.387Z,7.03
2023-02-17T12:33:19.678Z,3.67
2023-02-17T12:35:55.453Z,2.53
2023-02-17T12:38:33.005Z,8.70
2023-02-17T12:41:11.749Z,7.50
2023-02-17T12:43:48.052Z,12.57
2023-02-17T12:46:22.128Z,7.45
2023-02-17T12:49:07.554Z,4.95
2023-02-17T12:51:41.467Z,6.97
2023-02-17T12:54:22.933Z,11.85
2023-02-17T12:57:05.141Z,5.90
2023-02-17T12:59:39.262Z,7.55
2023-02-17T13:02:18.126Z,10.23
2023-02-17T13:04:52.549Z,11.63
2023-02-17T13:07:41.668Z,5.90
2023-02-17T13:10:30.076Z,8.93
2023-02-17T13:13:14.473Z,5.82
2023-02-17T13:15:46.281Z,7.63
2023-02-17T13:18:31.390Z,8.60
2023-02-17T13:20:58.194Z,8.30
2023-02-17T13:23:41.081Z,9.55
2023-02-17T13:26:20.640Z,8.38
2023-02-17T13:28:49.196Z,7.65
2023-02-17T13:31:26.277Z,9.55
2023-02-17T13:33:58.826Z,11.30
2023-02-17T13:36:28.207Z,12.15
2023-02-17T13:39:01.747Z,9.15
2023-02-17T13:41:48.808Z,10.45
2023-02-17T13:44:34.296Z,12.70
2023-02-17T13:47:06.162Z,11.30
2023-02-17T13:49:35.175Z,9.23
2023-02-17T13:52:17.532Z,13.82
2023-02-17T13:54:56.357Z,20.88
2023-02-17T13:57:29.246Z,18.20
2023-02-17T14:00:23.810Z,17.88
2023-02-17T14:03:37.967Z,17.25
2023-02-17T14:06:05.101Z,12.50
2023-02-17T14:08:42.966Z,23.65
2023-02-17T14:11:21.533Z,20.25
2023-02-17T14:13:51.424Z,28.85
2023-02-17T14:16:39.768Z,19.70
2023-02-17T14:19:19.441Z,22.90
2023-02-17T14:21:57.396Z,25.45
2023-02-17T14:24:44.574Z,33.67
2023-02-17T14:27:14.174Z,23.73
2023-02-17T14:29:50.281Z,24.42
2023-02-17T14:32:40.094Z,19.70
2023-02-17T14:35:14.108Z,26.63
2023-02-17T14:37:42.162Z,18.60
2023-02-17T14:40:18.377Z,25.85
2023-02-17T14:42:47.432Z,14.60
2023-02-17T14:45:15.327Z,20.05
2023-02-17T14:47:46.144Z,27.00
2023-02-17T14:50:13.370Z,23.38
2023-02-17T14:52:44.331Z,31.10
2023-02-17T14:55:18.898Z,15.85
2023-02-17T14:57:45.631Z,18.67
2023-02-17T15:00:14.478Z,19.52
2023-02-17T15:02:41.308Z,21.83
2023-02-17T15:05:08.506Z,18.42
2023-02-17T15:07:36.280Z,54.80
2023-02-17T15:10:14.342Z,36.97
2023-02-17T15:12:40.980Z,41.95
2023-02-17T15:15:13.903Z,37.17
2023-02-17T15:17:40.710Z,41.03
2023-02-17T15:20:10.269Z,53.33
2023-02-17T15:22:41.666Z,58.13
2023-02-17T15:25:16.857Z,36.00
2023-02-17T15:27:44.119Z,43.15
2023-02-17T15:30:13.940Z,50.10
2023-02-17T15:32:41.072Z,44.15
2023-02-17T15:35:18.230Z,103.57
2023-02-17T15:37:45.090Z,75.68
2023-02-17T15:40:28.401Z,87.38
2023-02-17T15:43:05.997Z,89.88
2023-02-17T15:45:33.462Z,103.38
2023-02-17T15:48:06.381Z,115.78
2023-02-17T15:50:33.203Z,107.55
2023-02-17T15:52:59.957Z,113.90
2023-02-17T15:55:28.315Z,92.60
2023-02-17T15:57:58.586Z,101.43
2023-02-17T16:00:28.409Z,91.25
2023-02-17T16:02:55.708Z,79.45
2023-02-17T16:05:24.426Z,82.78
2023-02-17T16:07:51.728Z,60.78
2023-02-17T16:10:21.485Z,54.55
2023-02-17T16:12:50.505Z,52.08
2023-02-17T16:15:23.033Z,70.10
2023-02-17T16:17:53.376Z,74.93
2023-02-17T16:20:29.228Z,88.85
2023-02-17T16:22:56.639Z,72.53
2023-02-17T16:25:23.615Z,77.07
2023-02-17T16:27:52.734Z,75.32
2023-02-17T16:30:19.556Z,71.07
2023-02-17T16:32:47.048Z,67.78
2023-02-17T16:35:15.600Z,65.13
2023-02-17T16:37:46.365Z,65.10
2023-02-17T16:40:17.200Z,66.20
2023-02-17T16:42:44.126Z,66.25
2023-02-17T16:45:15.763Z,99.20
2023-02-17T16:47:45.674Z,80.80
2023-02-17T16:50:21.608Z,77.28
2023-02-17T16:52:48.395Z,64.82
2023-02-17T16:55:17.487Z,61.83
2023-02-17T16:57:45.663Z,56.80
2023-02-17T17:00:16.880Z,59.78
2023-02-17T17:02:45.136Z,78.35
2023-02-17T17:05:12.894Z,54.20
2023-02-17T17:07:40.851Z,61.40
2023-02-17T17:10:23.397Z,85.70
2023-02-17T17:12:50.099Z,76.38
2023-02-17T17:15:17.817Z,86.90
2023-02-17T17:17:48.566Z,108.95
2023-02-17T17:20:18.911Z,62.30
2023-02-17T17:22:46.818Z,48.78
2023-02-17T17:25:14.682Z,41.63
2023-02-17T17:27:41.969Z,38.10
2023-02-17T17:30:17.491Z,31.50
2023-02-17T17:32:44.344Z,55.97
2023-02-17T17:35:11.065Z,108.50
2023-02-17T17:37:39.467Z,114.38
2023-02-17T17:40:07.329Z,84.65
2023-02-17T17:42:37.657Z,82.70
2023-02-17T17:45:04.578Z,84.35
2023-02-17T17:47:31.517Z,71.05
2023-02-17T17:49:58.473Z,77.53
2023-02-17T17:52:25.327Z,68.07
2023-02-17T17:54:52.231Z,65.00
2023-02-17T17:57:18.895Z,92.63
2023-02-17T17:59:45.719Z,77.00
2023-02-17T18:02:12.462Z,67.75
2023-02-17T18:04:39.682Z,73.22
2023-02-17T18:07:06.633Z,73.30
2023-02-17T18:09:36.803Z,81.63
2023-02-17T18:12:15.960Z,107.70
2023-02-17T18:14:44.282Z,88.05
2023-02-17T18:17:14.086Z,94.70
2023-02-17T18:19:41.496Z,75.03
2023-02-17T18:22:08.254Z,81.82
2023-02-17T18:24:35.067Z,69.65
2023-02-17T18:27:01.827Z,66.90
2023-02-17T18:29:28.501Z,71.80
2023-02-17T18:31:55.316Z,78.90
2023-02-17T18:34:22.294Z,82.15
2023-02-17T18:36:49.196Z,86.13
2023-02-17T18:39:16.115Z,63.17
2023-02-17T18:41:43.032Z,62.30
2023-02-17T18:44:11.631Z,68.38
2023-02-17T18:46:39.339Z,74.53
2023-02-17T18:49:06.937Z,95.65
2023-02-17T18:51:34.113Z,136.20
2023-02-17T18:54:01.869Z,132.05
2023-02-17T18:56:31.600Z,83.20
2023-02-17T18:58:59.159Z,58.23
2023-02-17T19:01:28.829Z,67.47
2023-02-17T19:03:56.918Z,105.20
2023-02-17T19:06:27.002Z,116.97
2023-02-17T19:08:53.953Z,100.93
2023-02-17T19:11:22.606Z,110.87
2023-02-17T19:13:50.330Z,108.22
2023-02-17T19:16:21.686Z,113.73
2023-02-17T19:18:49.169Z,94.93
2023-02-17T19:21:16.478Z,108.90
2023-02-17T19:23:43.803Z,98.60
2023-02-17T19:26:13.175Z,110.70
2023-02-17T19:28:41.527Z,102.20
2023-02-17T19:31:10.688Z,140.87
2023-02-17T19:33:37.953Z,128.38
2023-02-17T19:36:13.319Z,127.10
2023-02-17T19:38:40.017Z,102.97
2023-02-17T19:41:09.249Z,88.17
2023-02-17T19:43:36.238Z,75.70
2023-02-17T19:46:03.522Z,69.80
2023-02-17T19:48:30.570Z,75.83
2023-02-17T19:51:03.836Z,83.60
2023-02-17T19:53:31.891Z,107.33
2023-02-17T19:56:12.811Z,73.90
2023-02-17T19:58:41.326Z,79.33
2023-02-17T20:01:11.240Z,105.57
2023-02-17T20:03:38.270Z,128.03
2023-02-17T20:06:19.286Z,125.63
2023-02-17T20:08:46.655Z,133.60
2023-02-17T20:11:14.272Z,141.77
2023-02-17T20:13:46.190Z,151.53
2023-02-17T20:16:15.249Z,153.77
2023-02-17T20:18:44.891Z,95.90
2023-02-17T20:21:14.364Z,90.83
2023-02-17T20:23:41.055Z,89.53
2023-02-17T20:26:21.722Z,89.17
2023-02-17T20:28:49.295Z,87.60
2023-02-17T20:31:16.692Z,72.13
2023-02-17T20:33:44.392Z,66.77
2023-02-17T20:36:12.095Z,69.50
2023-02-17T20:38:39.778Z,85.43
2023-02-17T20:41:14.146Z,83.23
2023-02-17T20:43:41.329Z,120.53
2023-02-17T20:46:12.925Z,101.90
2023-02-17T20:48:39.732Z,78.93
2023-02-17T20:51:06.499Z,62.90
2023-02-17T20:53:33.811Z,74.87
2023-02-17T20:56:00.698Z,74.57
2023-02-17T20:58:27.416Z,71.43
2023-02-17T21:00:54.118Z,81.33
2023-02-17T21:03:20.857Z,88.20
2023-02-17T21:05:47.959Z,109.87
2023-02-17T21:08:14.627Z,111.30
2023-02-17T21:10:41.321Z,112.77
2023-02-17T21:13:08.059Z,125.13
2023-02-17T21:15:34.919Z,139.87
2023-02-17T21:18:01.732Z,118.77
2023-02-17T21:20:28.446Z,135.07
2023-02-17T21:22:55.113Z,134.17
2023-02-17T21:25:21.847Z,131.43
2023-02-17T21:27:48.529Z,111.93
2023-02-17T21:30:15.528Z,73.70
2023-02-17T21:32:42.576Z,64.30
2023-02-17T21:35:10.764Z,52.47
2023-02-17T21:37:39.115Z,39.93
2023-02-17T21:40:07.841Z,37.73
2023-02-17T21:42:55.570Z,43.93
2023-02-17T21:45:22.776Z,61.63
2023-02-17T21:47:49.523Z,90.23
2023-02-17T21:50:16.903Z,46.60
2023-02-17T21:52:43.611Z,46.80
2023-02-17T21:55:10.496Z,59.83
2023-02-17T21:57:37.159Z,79.80
2023-02-17T22:00:04.541Z,91.70
2023-02-17T22:02:31.186Z,91.33
2023-02-17T22:04:57.893Z,86.83
2023-02-17T22:07:24.567Z,86.57
2023-02-17T22:09:51.347Z,55.90
2023-02-17T22:12:19.042Z,52.60
2023-02-17T22:14:45.790Z,58.80
2023-02-17T22:17:12.503Z,52.10
2023-02-17T22:19:39.150Z,47.83
2023-02-17T22:22:05.861Z,47.27
2023-02-17T22:24:32.559Z,56.27
2023-02-17T22:26:59.358Z,72.27
2023-02-17T22:29:26.169Z,81.90
2023-02-17T22:31:55.931Z,88.17
2023-02-17T22:34:23.707Z,70.63
2023-02-17T22:36:50.419Z,69.30
2023-02-17T22:39:17.863Z,61.50
2023-02-17T22:41:44.668Z,58.67
2023-02-17T22:44:11.349Z,71.73
2023-02-17T22:46:38.241Z,78.07
2023-02-17T22:49:05.335Z,65.23
2023-02-17T22:51:36.199Z,58.30
2023-02-17T22:54:07.635Z,49.17
2023-02-17T22:56:34.436Z,40.47
2023-02-17T22:59:03.890Z,44.03
2023-02-17T23:01:34.613Z,30.53
2023-02-17T23:04:02.099Z,32.50
2023-02-17T23:06:31.945Z,32.80
2023-02-17T23:09:00.119Z,53.97
2023-02-17T23:11:48.855Z,37.70
2023-02-17T23:14:18.769Z,36.97
2023-02-17T23:16:45.871Z,44.17
2023-02-17T23:19:16.464Z,49.47
2023-02-17T23:21:44.972Z,57.10
2023-02-17T23:24:12.041Z,62.50
2023-02-17T23:26:39.166Z,64.37
2023-02-17T23:29:05.999Z,57.63
2023-02-17T23:31:33.164Z,40.00
2023-02-17T23:33:59.968Z,36.93
2023-02-17T23:36:26.677Z,34.00
2023-02-17T23:38:53.403Z,27.97
2023-02-17T23:41:20.028Z,29.03
2023-02-17T23:43:46.755Z,24.00
2023-02-17T23:46:13.489Z,23.73
2023-02-17T23:48:40.281Z,26.70
2023-02-17T23:51:07.216Z,27.37
2023-02-17T23:53:34.130Z,24.97
2023-02-17T23:56:14.291Z,24.13
2023-02-17T23:58:41.220Z,32.20
